Time;durP1;ratioP1;P1;durP2;ratioP2;P2;SDS_P1;SDS_P2;PMS_P1;PMS_P2;Temp;Humidity;BMP_temperature;BMP_pressure;BME280_temperature;BME280_humidity;BME280_pressure;Samples;Min_cycle;Max_cycle;Signal;HPM_P1;HPM_P2
2021/01/25 00:00:51;;;;;;;39.00;7.90;;;1.70;99.90;;;;;;4959296;28;20185;-86
2021/01/25 00:03:16;;;;;;;50.63;10.50;;;1.80;99.90;;;;;;4960466;28;20253;-86
2021/01/25 00:05:42;;;;;;;17.57;7.87;;;1.80;99.90;;;;;;4960132;28;20273;-86
2021/01/25 00:08:07;;;;;;;20.23;8.60;;;1.80;99.90;;;;;;4959882;28;20208;-85
2021/01/25 00:10:33;;;;;;;65.87;11.80;;;1.80;99.90;;;;;;4960311;28;20645;-86
2021/01/25 00:12:58;;;;;;;48.37;10.67;;;1.80;99.90;;;;;;4960200;28;20177;-86
2021/01/25 00:15:24;;;;;;;27.90;8.50;;;1.80;99.90;;;;;;4959634;28;20680;-86
2021/01/25 00:17:49;;;;;;;16.73;8.10;;;1.70;99.90;;;;;;4959927;28;20735;-87
2021/01/25 00:20:15;;;;;;;26.97;8.93;;;1.80;99.90;;;;;;4977469;28;20178;-86
2021/01/25 00:22:41;;;;;;;17.80;8.67;;;1.80;99.90;;;;;;4960307;28;20214;-86
2021/01/25 00:25:07;;;;;;;40.33;9.63;;;1.80;99.90;;;;;;4977227;28;20541;-86
2021/01/25 00:27:32;;;;;;;26.60;8.03;;;1.80;99.90;;;;;;4959908;28;20225;-86
2021/01/25 00:29:58;;;;;;;17.33;7.40;;;1.80;99.90;;;;;;4960131;28;20656;-86
2021/01/25 00:32:23;;;;;;;14.70;6.53;;;1.80;99.90;;;;;;4977518;28;20640;-86
2021/01/25 00:34:49;;;;;;;30.43;6.70;;;1.80;99.90;;;;;;4959740;28;20221;-85
2021/01/25 00:37:14;;;;;;;17.97;6.00;;;1.80;99.90;;;;;;4959603;28;20668;-85
2021/01/25 05:01:12;;;;;;;3.07;1.23;;;0.70;99.90;;;;;;6082233;23;21198;-82
2021/01/25 05:03:38;;;;;;;3.13;1.20;;;0.80;99.90;;;;;;4992692;28;20670;-82
2021/01/25 05:06:05;;;;;;;3.93;1.30;;;0.70;99.90;;;;;;4997367;28;20185;-83
2021/01/25 05:16:19;;;;;;;11.20;1.50;;;0.70;99.90;;;;;;5717906;23;20225;-86
2021/01/25 05:18:46;;;;;;;3.17;1.30;;;0.60;99.90;;;;;;4978242;28;20264;-85
2021/01/25 05:21:12;;;;;;;3.97;1.37;;;0.60;99.90;;;;;;4979049;28;20205;-87
2021/01/25 05:23:39;;;;;;;5.77;1.50;;;0.60;99.90;;;;;;4978930;28;20198;-85
2021/01/25 05:26:09;;;;;;;3.13;1.23;;;0.60;99.90;;;;;;4996412;28;20194;-85
2021/01/25 05:28:40;;;;;;;2.80;1.33;;;0.60;99.90;;;;;;4978669;28;20181;-87
2021/01/25 05:31:20;;;;;;;3.87;1.43;;;0.60;99.90;;;;;;4979155;28;20173;-85
2021/01/25 05:33:46;;;;;;;3.87;1.40;;;0.60;99.90;;;;;;4996416;28;20252;-86
2021/01/25 05:36:14;;;;;;;3.73;1.30;;;0.50;99.90;;;;;;4978310;28;20287;-87
2021/01/25 05:38:40;;;;;;;2.43;1.23;;;0.50;99.90;;;;;;4978162;28;20196;-86
2021/01/25 05:41:07;;;;;;;5.57;1.43;;;0.50;99.90;;;;;;4978449;28;20648;-86
2021/01/25 05:43:33;;;;;;;6.00;1.43;;;0.50;99.90;;;;;;4978259;28;20178;-84
2021/01/25 05:46:10;;;;;;;3.33;1.10;;;0.40;99.90;;;;;;4977737;28;20619;-85
2021/01/25 05:48:35;;;;;;;2.80;1.17;;;0.40;99.90;;;;;;4976728;28;20659;-84
2021/01/25 05:51:17;;;;;;;3.67;1.30;;;0.50;99.90;;;;;;4978317;28;20188;-84
2021/01/25 05:53:45;;;;;;;4.37;1.40;;;0.50;99.90;;;;;;4978316;28;20182;-84
2021/01/25 05:56:11;;;;;;;3.47;1.13;;;0.40;99.90;;;;;;4979447;28;20606;-85
2021/01/25 05:58:38;;;;;;;18.40;1.43;;;0.40;99.90;;;;;;4957770;28;20182;-85
2021/01/25 06:01:04;;;;;;;4.50;1.33;;;0.40;99.90;;;;;;4959151;28;20259;-87
2021/01/25 06:03:38;;;;;;;4.77;1.60;;;0.40;99.90;;;;;;4975273;28;20200;-86
2021/01/25 06:06:10;;;;;;;4.17;1.23;;;0.40;99.90;;;;;;4987493;28;20208;-87
2021/01/25 06:08:52;;;;;;;3.83;1.40;;;0.40;99.90;;;;;;4985926;28;20185;-86
2021/01/25 06:11:29;;;;;;;4.07;1.50;;;0.40;99.90;;;;;;4981829;28;20185;-88
2021/01/25 06:14:40;;;;;;;3.93;1.40;;;0.40;99.90;;;;;;4975149;28;20181;-87
2021/01/25 06:17:19;;;;;;;4.00;1.67;;;0.40;99.90;;;;;;4967463;28;21700;-87
2021/01/25 06:19:51;;;;;;;4.40;1.30;;;0.40;99.90;;;;;;4975386;28;20714;-88
2021/01/25 06:22:17;;;;;;;6.07;1.70;;;0.40;99.90;;;;;;4972219;28;20264;-86
2021/01/25 06:24:47;;;;;;;4.47;1.53;;;0.40;99.90;;;;;;4974978;28;20189;-86
2021/01/25 06:27:18;;;;;;;3.90;1.60;;;0.40;99.90;;;;;;4968728;28;20194;-87
2021/01/25 06:29:43;;;;;;;4.67;1.77;;;0.40;99.90;;;;;;4973733;28;20256;-86
2021/01/25 06:32:10;;;;;;;2.70;1.30;;;0.40;99.90;;;;;;4976431;28;20640;-86
2021/01/25 06:34:37;;;;;;;4.47;1.60;;;0.30;99.90;;;;;;4970118;28;22140;-86
2021/01/25 06:37:05;;;;;;;4.33;1.73;;;0.30;99.90;;;;;;4977795;28;20243;-86
2021/01/25 06:39:31;;;;;;;9.00;3.80;;;0.30;99.90;;;;;;4972105;28;20190;-86
2021/01/25 06:42:05;;;;;;;7.63;3.03;;;0.30;99.90;;;;;;4969322;28;20761;-86
2021/01/25 06:44:34;;;;;;;9.30;4.57;;;0.30;99.90;;;;;;4970701;28;20186;-86
2021/01/25 06:47:03;;;;;;;8.10;3.70;;;0.30;99.90;;;;;;4971276;28;20686;-85
2021/01/25 06:49:32;;;;;;;9.53;4.03;;;0.30;99.90;;;;;;4971130;28;20206;-85
2021/01/25 06:52:20;;;;;;;18.93;9.17;;;0.20;99.90;;;;;;4987246;28;20196;-84
2021/01/25 06:54:57;;;;;;;15.57;7.37;;;0.10;99.90;;;;;;4975394;28;20205;-85
2021/01/25 06:57:32;;;;;;;13.03;6.77;;;0.20;99.90;;;;;;4976123;28;20204;-85
2021/01/25 07:00:02;;;;;;;12.10;6.43;;;0.20;99.90;;;;;;4968228;28;20197;-86
2021/01/25 07:02:49;;;;;;;9.63;5.07;;;0.20;99.90;;;;;;4971029;28;20318;-87
2021/01/25 07:05:20;;;;;;;8.97;4.63;;;0.20;99.90;;;;;;4978358;28;20200;-86
2021/01/25 07:07:46;;;;;;;14.70;8.23;;;0.20;99.90;;;;;;4984130;28;20184;-86
2021/01/25 07:10:15;;;;;;;18.50;10.97;;;0.20;99.90;;;;;;4973352;28;20190;-86
2021/01/25 07:12:41;;;;;;;12.77;7.57;;;0.10;99.90;;;;;;4983814;28;20193;-86
2021/01/25 07:15:08;;;;;;;16.63;9.00;;;0.20;99.90;;;;;;4977264;28;20221;-86
2021/01/25 07:17:35;;;;;;;17.57;7.50;;;0.10;99.90;;;;;;4976305;28;20690;-85
2021/01/25 07:20:13;;;;;;;15.80;7.60;;;0.10;99.90;;;;;;4977580;28;20193;-86
2021/01/25 07:22:40;;;;;;;21.47;5.47;;;0.10;99.90;;;;;;4984452;28;20184;-86
2021/01/25 07:25:06;;;;;;;14.83;3.73;;;0.10;99.90;;;;;;4976896;28;20564;-85
2021/01/25 07:27:35;;;;;;;12.40;3.43;;;0.10;99.90;;;;;;4975667;28;20213;-86
2021/01/25 07:30:02;;;;;;;13.83;3.73;;;0.00;99.90;;;;;;4974362;28;20192;-84
2021/01/25 07:32:32;;;;;;;11.53;4.93;;;0.00;99.90;;;;;;4975873;28;20190;-85
2021/01/25 07:34:57;;;;;;;12.13;4.50;;;0.00;99.90;;;;;;4978664;28;20206;-85
2021/01/25 07:37:23;;;;;;;8.97;4.47;;;0.00;99.90;;;;;;4970158;28;20812;-87
2021/01/25 07:39:49;;;;;;;16.87;9.57;;;0.00;99.90;;;;;;4970582;28;20193;-85
2021/01/25 07:42:14;;;;;;;14.77;8.17;;;0.00;99.90;;;;;;4990948;28;20228;-86
2021/01/25 07:44:40;;;;;;;16.43;8.30;;;0.00;99.90;;;;;;4975940;28;20258;-86
2021/01/25 07:47:05;;;;;;;16.17;7.17;;;0.10;99.90;;;;;;4970027;28;20213;-84
2021/01/25 07:49:31;;;;;;;15.00;5.60;;;0.10;99.90;;;;;;4979289;28;20194;-87
2021/01/25 07:52:03;;;;;;;11.53;3.90;;;0.10;99.90;;;;;;4969389;28;20194;-85
2021/01/25 07:54:30;;;;;;;7.20;2.87;;;0.10;99.90;;;;;;4972510;28;20572;-86
2021/01/25 07:56:59;;;;;;;11.03;4.67;;;0.10;99.90;;;;;;4977712;28;20201;-86
2021/01/25 07:59:31;;;;;;;9.83;4.40;;;0.20;99.90;;;;;;4970052;28;20186;-86
2021/01/25 08:02:08;;;;;;;14.53;6.63;;;0.20;99.90;;;;;;4976511;28;20177;-86
2021/01/25 08:04:37;;;;;;;11.03;5.13;;;0.30;99.90;;;;;;4970730;28;20572;-87
2021/01/25 08:07:03;;;;;;;11.00;5.80;;;0.30;99.90;;;;;;4976382;28;20205;-87
2021/01/25 08:09:29;;;;;;;8.40;4.20;;;0.30;99.90;;;;;;4976420;28;20185;-87
2021/01/25 08:11:56;;;;;;;9.17;4.57;;;0.30;99.90;;;;;;4978686;28;20221;-85
2021/01/25 08:14:28;;;;;;;10.43;3.90;;;0.30;99.90;;;;;;4974019;28;20186;-89
2021/01/25 08:17:02;;;;;;;9.23;3.93;;;0.30;99.90;;;;;;4975513;28;20217;-90
2021/01/25 08:19:40;;;;;;;9.75;4.97;;;0.40;99.90;;;;;;4957028;28;20437;-86
2021/01/25 08:22:19;;;;;;;10.60;4.27;;;0.30;99.90;;;;;;4975167;28;20189;-87
2021/01/25 08:25:01;;;;;;;9.30;4.30;;;0.50;99.90;;;;;;4967491;28;20209;-87
2021/01/25 08:27:30;;;;;;;10.17;4.50;;;0.80;99.90;;;;;;4977079;28;20236;-86
2021/01/25 08:30:22;;;;;;;8.33;3.50;;;1.30;99.90;;;;;;4994358;28;20221;-88
2021/01/25 08:32:51;;;;;;;10.07;4.37;;;1.70;99.90;;;;;;4968476;28;20232;-90
2021/01/25 08:35:34;;;;;;;15.23;5.03;;;2.00;99.90;;;;;;4974963;28;20209;-90
2021/01/25 08:38:26;;;;;;;13.83;6.47;;;2.10;99.90;;;;;;4973042;28;20189;-90
2021/01/25 08:40:54;;;;;;;12.80;6.20;;;2.00;99.90;;;;;;4974313;28;20276;-88
2021/01/25 08:43:32;;;;;;;20.77;9.60;;;2.00;99.90;;;;;;4991386;28;20209;-89
2021/01/25 08:46:11;;;;;;;24.90;10.90;;;2.00;99.90;;;;;;4974356;28;20279;-87
2021/01/25 08:48:44;;;;;;;24.10;12.20;;;1.80;99.90;;;;;;4986964;28;20213;-89
2021/01/25 08:51:34;;;;;;;27.57;13.10;;;1.80;99.90;;;;;;4975011;28;20194;-90
2021/01/25 08:54:07;;;;;;;16.70;7.50;;;1.70;99.90;;;;;;4977155;28;20205;-88
2021/01/25 08:56:40;;;;;;;10.60;4.63;;;1.70;99.90;;;;;;4964841;28;20220;-92
2021/01/25 08:59:26;;;;;;;15.33;6.47;;;1.60;99.90;;;;;;4970914;28;20639;-87
2021/01/25 09:01:51;;;;;;;11.83;4.00;;;1.60;99.90;;;;;;4965351;28;20209;-90
2021/01/25 09:04:17;;;;;;;10.83;5.63;;;1.60;99.90;;;;;;4968500;28;20636;-90
2021/01/25 09:06:51;;;;;;;8.60;4.23;;;1.50;99.90;;;;;;4974667;28;20296;-89
2021/01/25 09:09:18;;;;;;;8.17;2.80;;;1.50;99.90;;;;;;4965696;28;20186;-89
2021/01/25 09:11:43;;;;;;;5.70;2.17;;;1.50;99.90;;;;;;4966644;28;20190;-90
2021/01/25 09:14:09;;;;;;;7.27;2.40;;;1.50;99.90;;;;;;4971882;28;20240;-91
2021/01/25 09:16:35;;;;;;;7.80;2.10;;;1.60;99.90;;;;;;4972134;28;20210;-90
2021/01/25 09:19:00;;;;;;;6.40;2.60;;;1.50;99.90;;;;;;4968896;28;20189;-90
2021/01/25 09:21:26;;;;;;;9.60;2.83;;;1.50;99.90;;;;;;4987162;28;20182;-88
2021/01/25 09:23:51;;;;;;;6.63;2.90;;;1.50;99.90;;;;;;4970339;28;20200;-88
2021/01/25 09:26:17;;;;;;;6.67;2.70;;;1.50;99.90;;;;;;4975157;28;20210;-88
2021/01/25 09:28:42;;;;;;;6.03;2.30;;;1.60;99.90;;;;;;4975221;28;20192;-86
2021/01/25 09:31:08;;;;;;;8.40;2.37;;;1.60;99.90;;;;;;4968111;28;20185;-88
2021/01/25 09:33:50;;;;;;;11.43;2.37;;;1.60;99.90;;;;;;4969372;28;20182;-87
2021/01/25 09:36:16;;;;;;;11.27;4.50;;;1.60;99.90;;;;;;4971096;28;20217;-89
2021/01/25 09:38:41;;;;;;;9.97;3.40;;;1.70;99.90;;;;;;4975557;28;20185;-88
2021/01/25 09:41:08;;;;;;;6.43;2.30;;;1.70;99.90;;;;;;4974850;28;20224;-90
2021/01/25 09:43:33;;;;;;;6.37;1.97;;;1.80;99.90;;;;;;4971819;28;20195;-88
2021/01/25 09:45:59;;;;;;;6.83;2.07;;;1.80;99.90;;;;;;4972483;28;20202;-90
2021/01/25 09:48:24;;;;;;;5.43;1.83;;;1.80;99.90;;;;;;4970422;28;20197;-90
2021/01/25 09:50:51;;;;;;;5.30;1.87;;;1.90;99.90;;;;;;4973666;28;20540;-89
2021/01/25 09:53:17;;;;;;;5.53;1.80;;;1.90;99.90;;;;;;4981868;28;20173;-88
2021/01/25 09:55:42;;;;;;;4.87;1.60;;;1.90;99.90;;;;;;4976310;28;20225;-88
2021/01/25 09:58:08;;;;;;;4.27;1.70;;;2.00;99.90;;;;;;4975973;28;20181;-90
2021/01/25 10:00:33;;;;;;;3.53;1.27;;;2.00;99.90;;;;;;4981171;28;20635;-89
2021/01/25 10:02:59;;;;;;;6.33;1.10;;;2.00;99.90;;;;;;4978092;28;20646;-88
2021/01/25 10:05:24;;;;;;;2.77;1.20;;;2.10;99.90;;;;;;4968502;28;20193;-88
2021/01/25 10:07:50;;;;;;;4.07;1.50;;;2.20;99.90;;;;;;4974395;28;21130;-87
2021/01/25 10:10:24;;;;;;;6.23;1.67;;;2.20;99.90;;;;;;4971643;28;20676;-87
2021/01/25 10:12:50;;;;;;;3.97;1.20;;;2.30;99.90;;;;;;4974172;28;20191;-87
2021/01/25 10:15:17;;;;;;;4.20;1.60;;;2.30;99.90;;;;;;4974982;28;20205;-87
2021/01/25 10:17:43;;;;;;;5.10;1.33;;;2.30;99.90;;;;;;4970163;28;20314;-87
2021/01/25 10:20:11;;;;;;;3.60;1.20;;;2.40;99.90;;;;;;4970206;28;20196;-87
2021/01/25 10:22:37;;;;;;;7.03;1.57;;;2.50;99.90;;;;;;4978117;28;20263;-87
2021/01/25 10:25:03;;;;;;;5.80;1.80;;;2.60;99.90;;;;;;4989994;28;20823;-88
2021/01/25 10:27:28;;;;;;;6.17;1.93;;;2.60;99.90;;;;;;4970181;28;20340;-89
2021/01/25 10:29:54;;;;;;;2.43;0.80;;;2.70;99.90;;;;;;4969742;28;20221;-88
2021/01/25 10:32:21;;;;;;;3.60;1.03;;;2.80;99.90;;;;;;4969325;28;20217;-89
2021/01/25 10:35:06;;;;;;;2.90;1.00;;;2.80;99.90;;;;;;4973227;28;20197;-88
2021/01/25 10:37:32;;;;;;;3.20;1.00;;;2.90;99.90;;;;;;4973105;28;20287;-87
2021/01/25 10:39:58;;;;;;;4.30;1.27;;;2.90;99.90;;;;;;4969454;28;20182;-85
2021/01/25 10:42:30;;;;;;;2.97;0.90;;;2.90;99.90;;;;;;4971926;28;20907;-89
2021/01/25 10:44:55;;;;;;;8.67;2.67;;;3.00;99.90;;;;;;4969189;28;20553;-87
2021/01/25 10:47:21;;;;;;;5.63;1.37;;;3.00;99.90;;;;;;4972589;28;20208;-86
2021/01/25 10:50:00;;;;;;;5.20;1.17;;;3.00;99.90;;;;;;4976606;28;20185;-86
2021/01/25 10:52:25;;;;;;;5.40;1.00;;;3.10;99.90;;;;;;4972456;28;20332;-85
2021/01/25 10:54:51;;;;;;;4.87;1.40;;;3.10;99.90;;;;;;4981876;28;20688;-87
2021/01/25 10:57:16;;;;;;;5.33;1.30;;;3.10;99.90;;;;;;4982040;28;20202;-86
2021/01/25 10:59:44;;;;;;;4.57;1.00;;;3.20;99.90;;;;;;4996648;28;20566;-89
2021/01/25 11:02:10;;;;;;;3.97;1.07;;;3.20;99.90;;;;;;4989064;28;20193;-88
2021/01/25 11:04:35;;;;;;;7.40;1.90;;;3.20;99.90;;;;;;4977771;28;20183;-86
2021/01/25 11:07:01;;;;;;;6.97;2.13;;;3.30;99.90;;;;;;4976865;28;20599;-89
2021/01/25 11:09:27;;;;;;;10.43;2.20;;;3.40;99.90;;;;;;4972579;28;20205;-87
2021/01/25 11:11:53;;;;;;;4.33;1.27;;;3.50;99.90;;;;;;4975184;28;20221;-90
2021/01/25 11:14:18;;;;;;;3.03;0.90;;;3.40;99.90;;;;;;4977473;28;20178;-88
2021/01/25 11:29:41;;;;;;;3.40;0.80;;;3.70;99.90;;;;;;5614277;23;20439;-85
2021/01/25 11:32:06;;;;;;;3.00;1.00;;;3.70;99.90;;;;;;4997123;28;20196;-86
2021/01/25 11:34:32;;;;;;;3.17;0.80;;;3.70;99.90;;;;;;4996293;28;20173;-86
2021/01/25 11:36:58;;;;;;;2.87;0.70;;;3.80;99.90;;;;;;4995883;28;20221;-87
2021/01/25 11:39:27;;;;;;;3.13;1.17;;;3.80;99.90;;;;;;4973184;28;20202;-85
2021/01/25 11:41:58;;;;;;;2.27;0.97;;;3.80;99.90;;;;;;4964676;28;20660;-87
2021/01/25 11:44:24;;;;;;;3.60;1.20;;;3.80;99.90;;;;;;4953985;28;20202;-85
2021/01/25 11:46:50;;;;;;;6.97;1.73;;;3.90;99.90;;;;;;4958287;28;20221;-85
2021/01/25 11:49:15;;;;;;;4.70;1.57;;;3.90;99.90;;;;;;4960439;28;20187;-85
2021/01/25 11:51:43;;;;;;;3.93;1.33;;;3.90;99.90;;;;;;4958229;28;20189;-86
2021/01/25 11:54:09;;;;;;;0.90;0.50;;;3.90;99.90;;;;;;4967685;28;20210;-86
2021/01/25 11:56:35;;;;;;;3.13;1.00;;;3.80;99.90;;;;;;4968055;28;20202;-85
2021/01/25 11:59:01;;;;;;;1.80;0.43;;;3.90;99.90;;;;;;4970972;28;20792;-86
2021/01/25 12:01:27;;;;;;;3.53;1.13;;;3.80;99.90;;;;;;4976146;28;20190;-86
2021/01/25 12:03:53;;;;;;;3.90;1.20;;;3.90;99.90;;;;;;4968105;28;20182;-86
2021/01/25 12:06:19;;;;;;;6.70;1.93;;;3.90;99.90;;;;;;4962081;28;20195;-85
2021/01/25 12:08:44;;;;;;;4.20;1.00;;;3.90;99.90;;;;;;4962061;28;20210;-86
2021/01/25 12:11:10;;;;;;;4.80;1.00;;;4.00;99.90;;;;;;4961174;28;20198;-85
2021/01/25 12:13:35;;;;;;;6.50;1.60;;;3.90;99.90;;;;;;4948798;28;20195;-86
2021/01/25 12:16:01;;;;;;;3.20;0.97;;;3.90;99.90;;;;;;4957661;28;20218;-86
2021/01/25 12:18:27;;;;;;;2.30;0.50;;;3.90;99.90;;;;;;4953121;29;20728;-86
2021/01/25 12:20:53;;;;;;;3.57;1.00;;;3.90;99.90;;;;;;4948951;28;20340;-86
2021/01/25 12:23:19;;;;;;;6.73;1.97;;;3.90;99.90;;;;;;4958763;28;20186;-86
2021/01/25 12:25:45;;;;;;;5.37;1.37;;;3.80;99.90;;;;;;4962186;28;20632;-86
2021/01/25 12:28:10;;;;;;;3.00;0.60;;;3.90;99.90;;;;;;4959118;28;20217;-86
2021/01/25 12:30:36;;;;;;;2.13;0.60;;;4.00;99.90;;;;;;4949336;28;20221;-85
2021/01/25 12:33:01;;;;;;;1.30;0.50;;;4.10;99.90;;;;;;4961997;28;20321;-86
2021/01/25 12:35:29;;;;;;;3.63;0.60;;;4.00;99.90;;;;;;4957987;28;20203;-85
2021/01/25 12:37:56;;;;;;;1.47;0.43;;;4.10;99.90;;;;;;4961781;28;20202;-85
2021/01/25 12:40:23;;;;;;;1.23;0.30;;;4.20;99.90;;;;;;4965689;28;20192;-87
2021/01/25 12:42:48;;;;;;;1.60;0.50;;;4.20;99.90;;;;;;4957105;28;20190;-85
2021/01/25 12:45:14;;;;;;;4.83;1.50;;;4.20;99.90;;;;;;4968353;28;20250;-86
2021/01/25 12:47:40;;;;;;;5.70;1.30;;;4.20;99.90;;;;;;4969278;28;20275;-85
2021/01/25 12:50:06;;;;;;;4.37;1.40;;;4.30;99.90;;;;;;4961081;28;20173;-86
2021/01/25 12:52:33;;;;;;;3.37;0.67;;;4.30;99.90;;;;;;4958325;28;20255;-85
2021/01/25 12:55:03;;;;;;;1.63;0.77;;;4.30;99.90;;;;;;4964251;28;20217;-86
2021/01/25 12:57:29;;;;;;;1.90;0.53;;;4.30;99.90;;;;;;4954936;28;20852;-84
2021/01/25 12:59:54;;;;;;;3.23;1.00;;;4.30;99.90;;;;;;4956065;28;20182;-86
2021/01/25 13:02:20;;;;;;;4.13;1.40;;;4.40;99.90;;;;;;4962449;28;20183;-86
2021/01/25 13:04:48;;;;;;;6.00;1.73;;;4.40;99.90;;;;;;4962153;28;20191;-88
2021/01/25 13:07:13;;;;;;;5.37;1.20;;;4.40;99.90;;;;;;4959927;28;20202;-85
2021/01/25 13:09:39;;;;;;;1.87;0.63;;;4.50;99.90;;;;;;4959490;28;20194;-86
2021/01/25 13:12:04;;;;;;;1.97;0.60;;;4.50;99.90;;;;;;4964038;28;20793;-87
2021/01/25 13:14:30;;;;;;;2.53;0.50;;;4.60;99.90;;;;;;4961732;28;21277;-88
2021/01/25 13:16:55;;;;;;;2.43;0.67;;;4.40;99.90;;;;;;4965232;28;20214;-87
2021/01/25 13:19:21;;;;;;;5.20;0.80;;;4.40;99.90;;;;;;4967064;28;20183;-85
2021/01/25 13:21:46;;;;;;;3.60;1.07;;;4.40;99.90;;;;;;4955874;28;20187;-87
2021/01/25 13:24:12;;;;;;;5.00;1.90;;;4.50;99.90;;;;;;4968568;28;20186;-87
2021/01/25 13:26:37;;;;;;;4.83;1.37;;;4.50;99.90;;;;;;4964642;28;20237;-85
2021/01/25 13:29:03;;;;;;;2.53;0.77;;;4.50;99.90;;;;;;4959906;28;20200;-88
2021/01/25 13:31:29;;;;;;;0.90;0.40;;;4.60;99.90;;;;;;4951796;28;20198;-84
2021/01/25 13:33:54;;;;;;;5.13;0.87;;;4.50;99.90;;;;;;4945764;28;20189;-85
2021/01/25 13:36:20;;;;;;;2.73;0.80;;;4.60;99.90;;;;;;4955536;28;20213;-87
2021/01/25 13:38:45;;;;;;;2.93;0.53;;;4.70;99.90;;;;;;4953370;28;20211;-86
2021/01/25 13:41:12;;;;;;;4.97;0.90;;;4.80;99.90;;;;;;4958247;28;20197;-86
2021/01/25 13:43:38;;;;;;;4.97;1.43;;;4.90;99.90;;;;;;4955821;28;20182;-85
2021/01/25 13:46:05;;;;;;;2.87;1.00;;;4.90;99.90;;;;;;4971406;28;20192;-87
2021/01/25 13:48:30;;;;;;;4.90;2.77;;;5.00;99.90;;;;;;4957810;28;20210;-86
2021/01/25 13:50:56;;;;;;;4.37;2.10;;;4.90;99.90;;;;;;4962520;28;20275;-88
2021/01/25 13:53:21;;;;;;;1.57;0.93;;;4.80;99.90;;;;;;4953650;28;20191;-86
2021/01/25 13:55:47;;;;;;;3.97;0.90;;;4.80;99.90;;;;;;4962700;28;20210;-86
2021/01/25 13:58:13;;;;;;;4.80;0.97;;;4.70;99.90;;;;;;4952424;28;20192;-88
2021/01/25 14:00:39;;;;;;;6.03;2.17;;;4.60;99.90;;;;;;4954783;28;20182;-87
2021/01/25 14:03:04;;;;;;;4.33;1.77;;;4.60;99.90;;;;;;4959363;28;20207;-87
2021/01/25 14:05:30;;;;;;;6.60;1.20;;;4.70;99.90;;;;;;4964418;28;20202;-86
2021/01/25 14:07:55;;;;;;;3.27;0.90;;;4.70;99.90;;;;;;4957753;28;20236;-87
2021/01/25 14:10:22;;;;;;;6.33;3.47;;;4.70;99.90;;;;;;4959119;28;20644;-86
2021/01/25 14:12:48;;;;;;;6.17;3.50;;;4.70;99.90;;;;;;4953947;28;20195;-89
2021/01/25 14:15:14;;;;;;;8.43;4.23;;;4.70;99.90;;;;;;4969364;28;20202;-86
2021/01/25 14:17:40;;;;;;;10.40;8.20;;;4.70;99.90;;;;;;4975099;28;20213;-86
2021/01/25 14:20:08;;;;;;;8.97;5.27;;;4.60;99.90;;;;;;4966035;28;20192;-85
2021/01/25 14:22:34;;;;;;;3.77;2.00;;;4.60;99.90;;;;;;4951712;28;20572;-85
2021/01/25 14:25:04;;;;;;;2.23;0.80;;;4.60;99.90;;;;;;4961498;28;20189;-86
2021/01/25 14:27:29;;;;;;;0.87;0.47;;;4.60;99.90;;;;;;4974587;28;20202;-85
2021/01/25 14:29:55;;;;;;;3.83;1.87;;;4.60;99.90;;;;;;4971961;28;20215;-86
2021/01/25 14:32:20;;;;;;;1.00;0.50;;;4.60;99.90;;;;;;4966631;28;20183;-86
2021/01/25 14:34:46;;;;;;;4.53;1.60;;;4.60;99.90;;;;;;4972012;28;20196;-87
2021/01/25 14:37:12;;;;;;;3.37;1.73;;;4.60;99.90;;;;;;4972530;28;20342;-87
2021/01/25 14:39:39;;;;;;;3.40;1.60;;;4.60;99.90;;;;;;4964198;28;20197;-87
2021/01/25 14:42:06;;;;;;;3.60;1.40;;;4.60;99.90;;;;;;4956279;28;20187;-86
2021/01/25 14:44:32;;;;;;;5.77;2.50;;;4.60;99.90;;;;;;4972540;28;20198;-87
2021/01/25 14:46:58;;;;;;;4.40;1.87;;;4.60;99.90;;;;;;4966221;28;20206;-86
2021/01/25 14:49:24;;;;;;;8.47;4.47;;;4.60;99.90;;;;;;4961944;28;20226;-85
2021/01/25 14:51:50;;;;;;;12.77;7.37;;;4.50;99.90;;;;;;4958919;28;20628;-86
2021/01/25 14:54:17;;;;;;;5.87;1.60;;;4.60;99.90;;;;;;4944703;28;20192;-85
2021/01/25 14:56:43;;;;;;;4.23;1.83;;;4.60;99.90;;;;;;4965534;28;20232;-85
2021/01/25 14:59:09;;;;;;;4.30;2.20;;;4.60;99.90;;;;;;4968027;28;20209;-85
2021/01/25 15:01:35;;;;;;;6.07;3.43;;;4.60;99.90;;;;;;4970313;28;20171;-84
2021/01/25 15:04:01;;;;;;;4.30;1.70;;;4.60;99.90;;;;;;4961955;28;20254;-85
2021/01/25 15:06:26;;;;;;;7.67;4.60;;;4.60;99.90;;;;;;4962030;28;20183;-88
2021/01/25 15:08:52;;;;;;;4.50;1.80;;;4.50;99.90;;;;;;4952763;28;20191;-87
2021/01/25 15:11:27;;;;;;;2.83;1.10;;;4.50;99.90;;;;;;4959029;28;20722;-86
2021/01/25 15:13:53;;;;;;;4.53;2.03;;;4.50;99.90;;;;;;4956671;28;20181;-86
2021/01/25 15:16:18;;;;;;;5.90;2.67;;;4.40;99.90;;;;;;4964088;28;20430;-86
2021/01/25 15:18:44;;;;;;;3.90;1.60;;;4.50;99.90;;;;;;4969037;28;20211;-87
2021/01/25 15:21:10;;;;;;;3.67;1.50;;;4.40;99.90;;;;;;4964758;28;20540;-86
2021/01/25 15:23:38;;;;;;;8.57;1.33;;;4.40;99.90;;;;;;4954216;28;20182;-85
2021/01/25 15:26:04;;;;;;;3.50;0.77;;;4.40;99.90;;;;;;4946717;28;20188;-84
2021/01/25 15:28:30;;;;;;;3.83;2.27;;;4.40;99.90;;;;;;4943537;28;20198;-85
2021/01/25 15:30:56;;;;;;;13.37;10.10;;;4.50;99.90;;;;;;4953130;28;20573;-85
2021/01/25 15:33:21;;;;;;;19.67;13.80;;;4.60;99.90;;;;;;4957518;28;20197;-86
2021/01/25 15:35:47;;;;;;;13.00;9.33;;;4.60;99.90;;;;;;4950859;28;20301;-85
2021/01/25 15:38:12;;;;;;;9.07;6.50;;;4.60;99.90;;;;;;4962274;28;20191;-86
2021/01/25 15:40:39;;;;;;;14.90;8.40;;;4.40;99.90;;;;;;4973188;28;20196;-85
2021/01/25 15:43:04;;;;;;;29.60;21.60;;;4.40;99.90;;;;;;4964897;28;20194;-86
2021/01/25 15:45:30;;;;;;;11.30;7.17;;;4.30;99.90;;;;;;4955028;28;20192;-86
2021/01/25 15:48:01;;;;;;;10.43;6.77;;;4.20;99.90;;;;;;4959403;28;20210;-86
2021/01/25 15:50:27;;;;;;;7.90;4.97;;;4.10;99.90;;;;;;4958975;28;20329;-85
2021/01/25 15:52:53;;;;;;;5.90;2.57;;;4.10;99.90;;;;;;4952991;28;20192;-86
2021/01/25 15:55:22;;;;;;;6.20;2.10;;;4.10;99.90;;;;;;4946706;29;20208;-85
2021/01/25 15:57:47;;;;;;;4.03;1.80;;;4.10;99.90;;;;;;4950002;28;20202;-86
2021/01/25 16:00:16;;;;;;;3.37;1.07;;;4.10;99.90;;;;;;4952837;28;20195;-86
2021/01/25 16:02:42;;;;;;;13.77;1.60;;;4.00;99.90;;;;;;4948589;28;20190;-85
2021/01/25 16:05:09;;;;;;;8.17;0.83;;;4.00;99.90;;;;;;4953693;28;20187;-89
2021/01/25 16:07:35;;;;;;;18.30;2.10;;;3.90;99.90;;;;;;4949350;28;20242;-87
2021/01/25 16:10:02;;;;;;;6.93;1.40;;;3.80;99.90;;;;;;4956123;28;20274;-85
2021/01/25 16:12:28;;;;;;;8.60;1.60;;;3.80;99.90;;;;;;4947306;28;20184;-85
2021/01/25 16:14:54;;;;;;;4.20;1.70;;;3.80;99.90;;;;;;4947730;28;20257;-87
2021/01/25 16:17:33;;;;;;;7.00;1.50;;;3.70;99.90;;;;;;4948882;28;20207;-86
2021/01/25 16:19:59;;;;;;;3.63;1.80;;;3.70;99.90;;;;;;4954964;28;20183;-85
2021/01/25 16:22:25;;;;;;;4.53;1.87;;;3.70;99.90;;;;;;4950166;28;20189;-85
2021/01/25 16:24:51;;;;;;;4.67;1.60;;;3.60;99.90;;;;;;4949463;28;20179;-86
2021/01/25 16:27:16;;;;;;;3.90;1.60;;;3.60;99.90;;;;;;4953942;28;20225;-85
2021/01/25 16:29:42;;;;;;;3.40;1.30;;;3.60;99.90;;;;;;4948360;28;20245;-87
2021/01/25 16:32:07;;;;;;;3.57;1.40;;;3.50;99.90;;;;;;4952091;28;20239;-85
2021/01/25 16:34:33;;;;;;;6.77;2.23;;;3.50;99.90;;;;;;4954467;28;20179;-85
2021/01/25 16:36:59;;;;;;;6.20;2.53;;;3.50;99.90;;;;;;4948778;28;20205;-85
2021/01/25 16:39:27;;;;;;;6.07;2.00;;;3.50;99.90;;;;;;4952430;28;20221;-86
2021/01/25 16:41:55;;;;;;;9.63;3.53;;;3.40;99.90;;;;;;4950111;28;20182;-85
2021/01/25 16:44:21;;;;;;;9.07;3.87;;;3.30;99.90;;;;;;4951399;28;20186;-85
2021/01/25 16:46:47;;;;;;;12.00;4.83;;;3.40;99.90;;;;;;4959080;28;20207;-86
2021/01/25 16:49:12;;;;;;;13.80;6.00;;;3.30;99.90;;;;;;4948997;28;20201;-84
2021/01/25 16:51:38;;;;;;;11.80;5.90;;;3.30;99.90;;;;;;4957785;28;20303;-86
2021/01/25 16:54:05;;;;;;;17.03;9.57;;;3.30;99.90;;;;;;4956146;28;20194;-85
2021/01/25 16:56:31;;;;;;;19.73;10.50;;;3.20;99.90;;;;;;4955807;28;20264;-85
2021/01/25 16:58:56;;;;;;;20.10;9.97;;;3.20;99.90;;;;;;4963999;28;20186;-86
2021/01/25 17:01:22;;;;;;;16.80;8.20;;;3.10;99.90;;;;;;4947136;28;20191;-87
2021/01/25 17:03:49;;;;;;;16.60;8.07;;;3.10;99.90;;;;;;4946787;28;20190;-85
2021/01/25 17:06:16;;;;;;;18.07;8.00;;;3.10;99.90;;;;;;4952671;28;20252;-85
2021/01/25 17:08:46;;;;;;;15.97;7.23;;;3.10;99.90;;;;;;4963821;28;20225;-85
2021/01/25 17:11:12;;;;;;;17.20;8.53;;;3.00;99.90;;;;;;4953253;28;20222;-87
2021/01/25 17:13:37;;;;;;;21.23;9.93;;;3.00;99.90;;;;;;4957758;28;20190;-85
2021/01/25 17:16:03;;;;;;;24.57;11.97;;;3.00;99.90;;;;;;4952006;28;20207;-86
2021/01/25 17:18:29;;;;;;;26.70;13.27;;;3.00;99.90;;;;;;4954980;28;20202;-86
2021/01/25 17:20:58;;;;;;;25.60;12.60;;;2.90;99.90;;;;;;4957782;28;20190;-85
2021/01/25 17:23:24;;;;;;;28.30;12.77;;;2.90;99.90;;;;;;4959045;28;20209;-87
2021/01/25 17:25:49;;;;;;;24.13;11.27;;;2.80;99.90;;;;;;4957024;28;20227;-84
2021/01/25 17:28:16;;;;;;;25.73;11.67;;;2.80;99.90;;;;;;4950328;28;21126;-86
2021/01/25 17:30:44;;;;;;;35.53;14.93;;;2.80;99.90;;;;;;4944974;28;20206;-85
2021/01/25 17:33:10;;;;;;;27.87;13.70;;;2.80;99.90;;;;;;4945112;28;20199;-87
2021/01/25 17:35:36;;;;;;;25.13;11.00;;;3.00;99.90;;;;;;4942689;28;20660;-84
2021/01/25 17:38:06;;;;;;;19.97;8.13;;;3.40;99.90;;;;;;4944596;28;20771;-85